sensor_id;sensor_type;location;lat;lon;timestamp;pressure;altitude;pressure_sealevel;temperature;humidity
72210;BME280;60113;48.762;12.302;2024-02-15T00:01:10;97749.22;;;3.92;100.00
72210;BME280;60113;48.762;12.302;2024-02-15T00:03:36;97745.72;;;3.93;100.00
72210;BME280;60113;48.762;12.302;2024-02-15T00:06:01;97746.63;;;3.92;100.00
72210;BME280;60113;48.762;12.302;2024-02-15T00:08:29;97754.38;;;3.93;100.00
72210;BME280;60113;48.762;12.302;2024-02-15T00:10:54;97751.78;;;3.93;100.00
72210;BME280;60113;48.762;12.302;2024-02-15T00:13:20;97754.31;;;3.95;100.00
72210;BME280;60113;48.762;12.302;2024-02-15T00:15:45;97749.97;;;3.95;100.00
72210;BME280;60113;48.762;12.302;2024-02-15T00:18:13;97743.91;;;3.95;100.00
72210;BME280;60113;48.762;12.302;2024-02-15T00:20:39;97747.38;;;3.95;100.00
72210;BME280;60113;48.762;12.302;2024-02-15T00:23:05;97749.03;;;3.96;100.00
72210;BME280;60113;48.762;12.302;2024-02-15T00:25:32;97753.31;;;3.97;100.00
72210;BME280;60113;48.762;12.302;2024-02-15T00:27:57;97761.19;;;3.96;100.00
72210;BME280;60113;48.762;12.302;2024-02-15T00:30:26;97761.19;;;3.96;100.00
72210;BME280;60113;48.762;12.302;2024-02-15T00:32:52;97759.50;;;3.95;100.00
72210;BME280;60113;48.762;12.302;2024-02-15T00:35:18;97761.25;;;3.94;100.00
72210;BME280;60113;48.762;12.302;2024-02-15T00:37:43;97760.44;;;3.94;100.00
72210;BME280;60113;48.762;12.302;2024-02-15T00:40:10;97755.28;;;3.92;100.00
72210;BME280;60113;48.762;12.302;2024-02-15T00:42:36;97748.38;;;3.91;100.00
72210;BME280;60113;48.762;12.302;2024-02-15T00:45:03;97741.50;;;3.90;100.00
72210;BME280;60113;48.762;12.302;2024-02-15T00:47:28;97740.69;;;3.88;100.00
72210;BME280;60113;48.762;12.302;2024-02-15T00:49:54;97745.91;;;3.88;100.00
72210;BME280;60113;48.762;12.302;2024-02-15T00:52:19;97736.41;;;3.87;100.00
72210;BME280;60113;48.762;12.302;2024-02-15T00:54:46;97735.50;;;3.88;100.00
72210;BME280;60113;48.762;12.302;2024-02-15T00:57:11;97734.63;;;3.89;100.00
72210;BME280;60113;48.762;12.302;2024-02-15T00:59:37;97732.06;;;3.87;100.00
72210;BME280;60113;48.762;12.302;2024-02-15T01:02:03;97735.56;;;3.86;100.00
72210;BME280;60113;48.762;12.302;2024-02-15T01:04:29;97726.09;;;3.85;100.00
72210;BME280;60113;48.762;12.302;2024-02-15T01:06:54;97730.44;;;3.85;100.00
72210;BME280;60113;48.762;12.302;2024-02-15T01:09:21;97725.28;;;3.83;100.00
72210;BME280;60113;48.762;12.302;2024-02-15T01:11:48;97729.66;;;3.83;100.00
72210;BME280;60113;48.762;12.302;2024-02-15T01:14:14;97725.34;;;3.82;100.00
72210;BME280;60113;48.762;12.302;2024-02-15T01:16:43;97733.16;;;3.82;100.00
72210;BME280;60113;48.762;12.302;2024-02-15T01:19:09;97724.47;;;3.83;100.00
72210;BME280;60113;48.762;12.302;2024-02-15T01:21:35;97724.34;;;3.86;100.00
72210;BME280;60113;48.762;12.302;2024-02-15T01:24:00;97727.75;;;3.86;100.00
72210;BME280;60113;48.762;12.302;2024-02-15T01:26:26;97722.56;;;3.86;100.00
72210;BME280;60113;48.762;12.302;2024-02-15T01:28:52;97727.75;;;3.86;100.00
72210;BME280;60113;48.762;12.302;2024-02-15T01:31:17;97725.91;;;3.90;100.00
72210;BME280;60113;48.762;12.302;2024-02-15T01:33:43;97722.13;;;3.97;100.00
72210;BME280;60113;48.762;12.302;2024-02-15T01:36:13;97716.53;;;4.07;100.00
72210;BME280;60113;48.762;12.302;2024-02-15T01:38:39;97721.59;;;4.10;100.00
72210;BME280;60113;48.762;12.302;2024-02-15T01:41:05;97716.41;;;4.10;100.00
72210;BME280;60113;48.762;12.302;2024-02-15T01:43:30;97715.56;;;4.09;100.00
72210;BME280;60113;48.762;12.302;2024-02-15T01:45:56;97724.28;;;4.08;100.00
72210;BME280;60113;48.762;12.302;2024-02-15T01:48:24;97715.69;;;4.06;100.00
72210;BME280;60113;48.762;12.302;2024-02-15T01:50:50;97719.19;;;4.05;100.00
72210;BME280;60113;48.762;12.302;2024-02-15T01:53:17;97724.41;;;4.05;100.00
72210;BME280;60113;48.762;12.302;2024-02-15T01:55:43;97725.31;;;4.04;100.00
72210;BME280;60113;48.762;12.302;2024-02-15T01:58:10;97736.63;;;4.03;100.00
72210;BME280;60113;48.762;12.302;2024-02-15T02:00:36;97729.66;;;4.04;100.00
72210;BME280;60113;48.762;12.302;2024-02-15T02:03:05;97723.59;;;4.03;100.00
72210;BME280;60113;48.762;12.302;2024-02-15T02:05:31;97729.66;;;4.04;100.00
72210;BME280;60113;48.762;12.302;2024-02-15T02:07:57;97719.19;;;4.05;100.00
72210;BME280;60113;48.762;12.302;2024-02-15T02:10:29;97726.03;;;4.08;100.00
72210;BME280;60113;48.762;12.302;2024-02-15T02:13:00;97712.94;;;4.09;100.00
72210;BME280;60113;48.762;12.302;2024-02-15T02:15:27;97726.81;;;4.10;100.00
72210;BME280;60113;48.762;12.302;2024-02-15T02:17:54;97715.41;;;4.12;100.00
72210;BME280;60113;48.762;12.302;2024-02-15T02:20:19;97716.22;;;4.15;100.00
72210;BME280;60113;48.762;12.302;2024-02-15T02:22:49;97708.34;;;4.16;100.00
72210;BME280;60113;48.762;12.302;2024-02-15T02:25:16;97712.63;;;4.17;100.00
72210;BME280;60113;48.762;12.302;2024-02-15T02:27:41;97720.44;;;4.17;100.00
72210;BME280;60113;48.762;12.302;2024-02-15T02:30:15;97716.94;;;4.18;100.00
72210;BME280;60113;48.762;12.302;2024-02-15T02:32:42;97716.09;;;4.18;100.00
72210;BME280;60113;48.762;12.302;2024-02-15T02:35:08;97710.81;;;4.19;100.00
72210;BME280;60113;48.762;12.302;2024-02-15T02:37:38;97703.94;;;4.18;100.00
72210;BME280;60113;48.762;12.302;2024-02-15T02:40:08;97703.94;;;4.18;100.00
72210;BME280;60113;48.762;12.302;2024-02-15T02:42:36;97704.00;;;4.17;100.00
72210;BME280;60113;48.762;12.302;2024-02-15T02:45:11;97703.94;;;4.18;100.00
72210;BME280;60113;48.762;12.302;2024-02-15T02:47:36;97703.94;;;4.18;100.00
72210;BME280;60113;48.762;12.302;2024-02-15T02:50:02;97700.47;;;4.18;100.00
72210;BME280;60113;48.762;12.302;2024-02-15T02:52:28;97696.19;;;4.17;100.00
72210;BME280;60113;48.762;12.302;2024-02-15T02:54:53;97701.34;;;4.18;100.00
72210;BME280;60113;48.762;12.302;2024-02-15T02:57:19;97703.00;;;4.19;100.00
72210;BME280;60113;48.762;12.302;2024-02-15T02:59:44;97702.09;;;4.20;100.00
72210;BME280;60113;48.762;12.302;2024-02-15T03:02:10;97704.75;;;4.19;100.00
72210;BME280;60113;48.762;12.302;2024-02-15T03:04:35;97712.56;;;4.19;100.00
72210;BME280;60113;48.762;12.302;2024-02-15T03:07:02;97716.09;;;4.18;100.00
72210;BME280;60113;48.762;12.302;2024-02-15T03:09:27;97719.66;;;4.15;100.00
72210;BME280;60113;48.762;12.302;2024-02-15T03:11:55;97711.88;;;4.15;100.00
72210;BME280;60113;48.762;12.302;2024-02-15T03:14:20;97717.06;;;4.15;100.00
72210;BME280;60113;48.762;12.302;2024-02-15T03:16:46;97722.28;;;4.15;100.00
72210;BME280;60113;48.762;12.302;2024-02-15T03:19:11;97711.88;;;4.15;100.00
72210;BME280;60113;48.762;12.302;2024-02-15T03:21:37;97719.66;;;4.15;100.00
72210;BME280;60113;48.762;12.302;2024-02-15T03:24:03;97719.75;;;4.13;100.00
72210;BME280;60113;48.762;12.302;2024-02-15T03:26:30;97724.88;;;4.15;100.00
72210;BME280;60113;48.762;12.302;2024-02-15T03:28:58;97714.41;;;4.17;100.00
72210;BME280;60113;48.762;12.302;2024-02-15T03:31:24;97710.88;;;4.18;100.00
72210;BME280;60113;48.762;12.302;2024-02-15T03:33:49;97707.34;;;4.19;100.00
72210;BME280;60113;48.762;12.302;2024-02-15T03:36:16;97706.41;;;4.21;100.00
72210;BME280;60113;48.762;12.302;2024-02-15T03:38:43;97702.03;;;4.22;100.00
72210;BME280;60113;48.762;12.302;2024-02-15T03:41:10;97708.00;;;4.24;100.00
72210;BME280;60113;48.762;12.302;2024-02-15T03:43:35;97711.34;;;4.28;100.00
72210;BME280;60113;48.762;12.302;2024-02-15T03:46:01;97707.81;;;4.29;100.00
72210;BME280;60113;48.762;12.302;2024-02-15T03:48:26;97705.22;;;4.29;100.00
72210;BME280;60113;48.762;12.302;2024-02-15T03:50:52;97706.06;;;4.29;100.00
72210;BME280;60113;48.762;12.302;2024-02-15T03:53:18;97706.97;;;4.28;100.00
72210;BME280;60113;48.762;12.302;2024-02-15T03:55:43;97706.22;;;4.26;100.00
72210;BME280;60113;48.762;12.302;2024-02-15T03:58:09;97709.84;;;4.22;100.00
72210;BME280;60113;48.762;12.302;2024-02-15T04:00:34;97707.28;;;4.20;100.00
72210;BME280;60113;48.762;12.302;2024-02-15T04:03:00;97709.13;;;4.18;100.00
72210;BME280;60113;48.762;12.302;2024-02-15T04:05:26;97710.88;;;4.18;100.00
72210;BME280;60113;48.762;12.302;2024-02-15T04:07:51;97714.28;;;4.20;100.00
72210;BME280;60113;48.762;12.302;2024-02-15T04:10:18;97716.81;;;4.21;100.00
72210;BME280;60113;48.762;12.302;2024-02-15T04:12:44;97712.38;;;4.23;100.00
72210;BME280;60113;48.762;12.302;2024-02-15T04:15:09;97715.75;;;4.25;100.00
72210;BME280;60113;48.762;12.302;2024-02-15T04:17:41;97720.81;;;4.29;100.00
72210;BME280;60113;48.762;12.302;2024-02-15T04:20:08;97718.94;;;4.32;100.00
72210;BME280;60113;48.762;12.302;2024-02-15T04:22:35;97710.16;;;4.35;100.00
72210;BME280;60113;48.762;12.302;2024-02-15T04:25:07;97702.22;;;4.38;100.00
72210;BME280;60113;48.762;12.302;2024-02-15T04:27:35;97703.91;;;4.39;100.00
72210;BME280;60113;48.762;12.302;2024-02-15T04:30:02;97710.69;;;4.43;100.00
72210;BME280;60113;48.762;12.302;2024-02-15T04:32:27;97714.91;;;4.46;100.00
72210;BME280;60113;48.762;12.302;2024-02-15T04:34:54;97709.63;;;4.47;100.00
72210;BME280;60113;48.762;12.302;2024-02-15T04:37:19;97711.31;;;4.48;100.00
72210;BME280;60113;48.762;12.302;2024-02-15T04:39:45;97717.28;;;4.50;100.00
72210;BME280;60113;48.762;12.302;2024-02-15T04:42:13;97718.09;;;4.53;100.00
72210;BME280;60113;48.762;12.302;2024-02-15T04:44:39;97707.69;;;4.53;100.00
72210;BME280;60113;48.762;12.302;2024-02-15T04:47:05;97698.94;;;4.54;100.00
72210;BME280;60113;48.762;12.302;2024-02-15T04:49:32;97707.53;;;4.56;100.00
72210;BME280;60113;48.762;12.302;2024-02-15T04:51:57;97710.91;;;4.58;100.00
72210;BME280;60113;48.762;12.302;2024-02-15T04:54:23;97708.22;;;4.59;100.00
72210;BME280;60113;48.762;12.302;2024-02-15T04:56:48;97705.50;;;4.62;100.00
72210;BME280;60113;48.762;12.302;2024-02-15T04:59:17;97707.88;;;4.67;100.00
72210;BME280;60113;48.762;12.302;2024-02-15T05:01:45;97704.28;;;4.70;100.00
72210;BME280;60113;48.762;12.302;2024-02-15T05:04:11;97711.22;;;4.71;100.00
72210;BME280;60113;48.762;12.302;2024-02-15T05:06:38;97713.69;;;4.74;100.00
72210;BME280;60113;48.762;12.302;2024-02-15T05:09:04;97707.53;;;4.75;100.00
72210;BME280;60113;48.762;12.302;2024-02-15T05:11:36;97705.72;;;4.77;100.00
72210;BME280;60113;48.762;12.302;2024-02-15T05:14:02;97709.16;;;4.78;100.00
72210;BME280;60113;48.762;12.302;2024-02-15T05:16:31;97702.28;;;4.77;100.00
72210;BME280;60113;48.762;12.302;2024-02-15T05:18:57;97708.53;;;4.72;100.00
72210;BME280;60113;48.762;12.302;2024-02-15T05:21:22;97706.06;;;4.69;100.00
72210;BME280;60113;48.762;12.302;2024-02-15T05:23:48;97714.78;;;4.68;100.00
72210;BME280;60113;48.762;12.302;2024-02-15T05:26:14;97717.53;;;4.65;100.00
72210;BME280;60113;48.762;12.302;2024-02-15T05:28:42;97707.28;;;4.62;100.00
72210;BME280;60113;48.762;12.302;2024-02-15T05:33:34;97704.34;;;4.49;100.00
72210;BME280;60113;48.762;12.302;2024-02-15T05:36:00;97705.34;;;4.46;100.00
72210;BME280;60113;48.762;12.302;2024-02-15T05:38:25;97708.00;;;4.45;100.00
72210;BME280;60113;48.762;12.302;2024-02-15T05:40:51;97704.56;;;4.44;100.00
72210;BME280;60113;48.762;12.302;2024-02-15T05:43:16;97711.44;;;4.45;100.00
72210;BME280;60113;48.762;12.302;2024-02-15T05:45:42;97707.03;;;4.47;100.00
72210;BME280;60113;48.762;12.302;2024-02-15T05:48:07;97713.00;;;4.49;100.00
72210;BME280;60113;48.762;12.302;2024-02-15T05:50:34;97714.63;;;4.52;100.00
72210;BME280;60113;48.762;12.302;2024-02-15T05:52:59;97715.41;;;4.54;100.00
72210;BME280;60113;48.762;12.302;2024-02-15T05:55:26;97716.09;;;4.58;100.00
72210;BME280;60113;48.762;12.302;2024-02-15T05:57:54;97713.44;;;4.59;100.00
72210;BME280;60113;48.762;12.302;2024-02-15T06:00:21;97707.41;;;4.59;100.00
72210;BME280;60113;48.762;12.302;2024-02-15T06:02:46;97705.63;;;4.59;100.00
72210;BME280;60113;48.762;12.302;2024-02-15T06:05:12;97712.63;;;4.59;100.00
72210;BME280;60113;48.762;12.302;2024-02-15T06:07:37;97715.16;;;4.60;100.00
72210;BME280;60113;48.762;12.302;2024-02-15T06:10:05;97722.88;;;4.62;100.00
72210;BME280;60113;48.762;12.302;2024-02-15T06:12:32;97720.28;;;4.62;100.00
72210;BME280;60113;48.762;12.302;2024-02-15T06:14:58;97713.38;;;4.61;100.00
72210;BME280;60113;48.762;12.302;2024-02-15T06:17:23;97713.44;;;4.59;100.00
72210;BME280;60113;48.762;12.302;2024-02-15T06:19:49;97716.03;;;4.59;100.00
72210;BME280;60113;48.762;12.302;2024-02-15T06:22:15;97722.16;;;4.58;100.00
72210;BME280;60113;48.762;12.302;2024-02-15T06:24:44;97723.03;;;4.59;100.00
72210;BME280;60113;48.762;12.302;2024-02-15T06:27:09;97723.16;;;4.56;100.00
72210;BME280;60113;48.762;12.302;2024-02-15T06:29:36;97713.63;;;4.55;100.00
72210;BME280;60113;48.762;12.302;2024-02-15T06:32:20;97717.16;;;4.54;100.00
72210;BME280;60113;48.762;12.302;2024-02-15T06:35:04;97730.97;;;4.56;100.00
72210;BME280;60113;48.762;12.302;2024-02-15T06:37:48;97734.31;;;4.58;100.00
72210;BME280;60113;48.762;12.302;2024-02-15T06:40:32;97738.56;;;4.60;100.00
72210;BME280;60113;48.762;12.302;2024-02-15T06:42:58;97734.13;;;4.62;100.00
72210;BME280;60113;48.762;12.302;2024-02-15T06:45:23;97741.88;;;4.64;100.00
72210;BME280;60113;48.762;12.302;2024-02-15T06:47:49;97743.50;;;4.67;100.00
72210;BME280;60113;48.762;12.302;2024-02-15T06:50:15;97745.13;;;4.69;100.00
72210;BME280;60113;48.762;12.302;2024-02-15T06:52:42;97747.66;;;4.71;100.00
72210;BME280;60113;48.762;12.302;2024-02-15T06:55:08;97741.47;;;4.73;100.00
72210;BME280;60113;48.762;12.302;2024-02-15T06:57:38;97751.75;;;4.77;100.00
72210;BME280;60113;48.762;12.302;2024-02-15T07:00:06;97743.78;;;4.80;100.00
72210;BME280;60113;48.762;12.302;2024-02-15T07:02:39;97746.25;;;4.83;100.00
72210;BME280;60113;48.762;12.302;2024-02-15T07:05:05;97748.72;;;4.86;100.00
72210;BME280;60113;48.762;12.302;2024-02-15T07:07:31;97746.91;;;4.88;100.00
72210;BME280;60113;48.762;12.302;2024-02-15T07:09:58;97753.66;;;4.92;100.00
72210;BME280;60113;48.762;12.302;2024-02-15T07:12:23;97747.47;;;4.95;100.00
72210;BME280;60113;48.762;12.302;2024-02-15T07:14:49;97750.78;;;4.98;100.00
72210;BME280;60113;48.762;12.302;2024-02-15T07:17:14;97748.97;;;5.00;100.00
72210;BME280;60113;48.762;12.302;2024-02-15T07:19:43;97753.97;;;5.05;100.00
72210;BME280;60113;48.762;12.302;2024-02-15T07:22:10;97752.91;;;5.09;100.00
72210;BME280;60113;48.762;12.302;2024-02-15T07:24:35;97755.38;;;5.12;100.00
72210;BME280;60113;48.762;12.302;2024-02-15T07:27:06;97763.81;;;5.18;100.00
72210;BME280;60113;48.762;12.302;2024-02-15T07:29:31;97757.56;;;5.22;100.00
72210;BME280;60113;48.762;12.302;2024-02-15T07:32:00;97753.88;;;5.26;100.00
72210;BME280;60113;48.762;12.302;2024-02-15T07:34:26;97756.19;;;5.32;100.00
72210;BME280;60113;48.762;12.302;2024-02-15T07:36:52;97757.66;;;5.38;100.00
72210;BME280;60113;48.762;12.302;2024-02-15T07:39:17;97747.88;;;5.43;100.00
72210;BME280;60113;48.762;12.302;2024-02-15T07:41:50;97742.44;;;5.48;100.00
72210;BME280;60113;48.762;12.302;2024-02-15T07:44:16;97742.94;;;5.56;100.00
72210;BME280;60113;48.762;12.302;2024-02-15T07:46:43;97738.19;;;5.65;100.00
72210;BME280;60113;48.762;12.302;2024-02-15T07:49:08;97739.59;;;5.72;100.00
72210;BME280;60113;48.762;12.302;2024-02-15T07:51:34;97736.63;;;5.80;100.00
72210;BME280;60113;48.762;12.302;2024-02-15T07:53:59;97728.41;;;5.87;100.00
72210;BME280;60113;48.762;12.302;2024-02-15T07:56:26;97734.00;;;5.97;100.00
72210;BME280;60113;48.762;12.302;2024-02-15T07:58:52;97721.31;;;6.09;100.00
72210;BME280;60113;48.762;12.302;2024-02-15T08:01:18;97723.97;;;6.25;100.00
72210;BME280;60113;48.762;12.302;2024-02-15T08:03:47;97721.28;;;6.44;100.00
72210;BME280;60113;48.762;12.302;2024-02-15T08:06:14;97723.50;;;6.68;100.00
72210;BME280;60113;48.762;12.302;2024-02-15T08:08:43;97723.59;;;7.00;100.00
72210;BME280;60113;48.762;12.302;2024-02-15T08:11:15;97723.34;;;7.37;100.00
72210;BME280;60113;48.762;12.302;2024-02-15T08:13:51;97711.53;;;7.77;100.00
72210;BME280;60113;48.762;12.302;2024-02-15T08:16:21;97717.66;;;8.23;100.00
72210;BME280;60113;48.762;12.302;2024-02-15T08:18:53;97721.56;;;8.61;100.00
72210;BME280;60113;48.762;12.302;2024-02-15T08:21:30;97711.91;;;8.91;100.00
72210;BME280;60113;48.762;12.302;2024-02-15T08:23:59;97710.84;;;9.22;100.00
72210;BME280;60113;48.762;12.302;2024-02-15T08:26:25;97706.84;;;9.44;100.00
72210;BME280;60113;48.762;12.302;2024-02-15T08:28:51;97704.47;;;9.54;100.00
72210;BME280;60113;48.762;12.302;2024-02-15T08:31:17;97699.03;;;9.57;100.00
72210;BME280;60113;48.762;12.302;2024-02-15T08:33:44;97699.97;;;9.56;100.00
72210;BME280;60113;48.762;12.302;2024-02-15T08:36:11;97689.72;;;9.66;100.00
72210;BME280;60113;48.762;12.302;2024-02-15T08:38:38;97696.66;;;9.67;100.00
72210;BME280;60113;48.762;12.302;2024-02-15T08:41:04;97698.88;;;9.73;100.00
72210;BME280;60113;48.762;12.302;2024-02-15T08:43:31;97690.50;;;9.81;100.00
72210;BME280;60113;48.762;12.302;2024-02-15T08:45:58;97694.94;;;9.94;100.00
72210;BME280;60113;48.762;12.302;2024-02-15T08:48:23;97689.59;;;10.08;100.00
72210;BME280;60113;48.762;12.302;2024-02-15T08:50:49;97682.47;;;10.23;100.00
72210;BME280;60113;48.762;12.302;2024-02-15T08:53:15;97678.19;;;10.35;100.00
72210;BME280;60113;48.762;12.302;2024-02-15T08:55:41;97675.47;;;10.50;100.00
72210;BME280;60113;48.762;12.302;2024-02-15T08:58:06;97679.75;;;10.64;100.00
72210;BME280;60113;48.762;12.302;2024-02-15T09:00:34;97674.28;;;10.67;100.00
72210;BME280;60113;48.762;12.302;2024-02-15T09:03:00;97684.41;;;10.60;100.00
72210;BME280;60113;48.762;12.302;2024-02-15T09:05:25;97684.09;;;10.65;100.00
72210;BME280;60113;48.762;12.302;2024-02-15T09:07:51;97679.66;;;10.79;100.00
72210;BME280;60113;48.762;12.302;2024-02-15T09:10:17;97671.00;;;10.90;100.00
72210;BME280;60113;48.762;12.302;2024-02-15T09:12:43;97673.41;;;10.93;100.00
72210;BME280;60113;48.762;12.302;2024-02-15T09:15:12;97679.28;;;10.96;100.00
72210;BME280;60113;48.762;12.302;2024-02-15T09:17:37;97674.31;;;11.05;100.00
72210;BME280;60113;48.762;12.302;2024-02-15T09:20:10;97670.94;;;11.16;100.00
72210;BME280;60113;48.762;12.302;2024-02-15T09:22:51;97672.28;;;11.21;100.00
72210;BME280;60113;48.762;12.302;2024-02-15T09:25:17;97678.84;;;11.40;100.00
72210;BME280;60113;48.762;12.302;2024-02-15T09:27:43;97676.16;;;11.53;100.00
72210;BME280;60113;48.762;12.302;2024-02-15T09:30:09;97672.53;;;11.79;100.00
72210;BME280;60113;48.762;12.302;2024-02-15T09:32:41;97672.25;;;12.06;100.00
72210;BME280;60113;48.762;12.302;2024-02-15T09:35:08;97666.47;;;12.25;100.00
72210;BME280;60113;48.762;12.302;2024-02-15T09:37:34;97661.69;;;12.31;100.00
72210;BME280;60113;48.762;12.302;2024-02-15T09:40:00;97658.28;;;12.17;100.00
72210;BME280;60113;48.762;12.302;2024-02-15T09:42:32;97670.81;;;12.02;100.00
72210;BME280;60113;48.762;12.302;2024-02-15T09:45:00;97664.00;;;11.99;100.00
72210;BME280;60113;48.762;12.302;2024-02-15T09:47:34;97663.03;;;12.00;97.30
72210;BME280;60113;48.762;12.302;2024-02-15T09:50:00;97660.25;;;11.91;88.50
72210;BME280;60113;48.762;12.302;2024-02-15T09:52:26;97652.44;;;12.25;100.00
72210;BME280;60113;48.762;12.302;2024-02-15T09:54:52;97653.31;;;12.60;100.00
72210;BME280;60113;48.762;12.302;2024-02-15T09:57:19;97657.00;;;12.92;100.00
72210;BME280;60113;48.762;12.302;2024-02-15T09:59:44;97649.81;;;13.05;100.00
72210;BME280;60113;48.762;12.302;2024-02-15T10:02:10;97656.75;;;13.18;100.00
72210;BME280;60113;48.762;12.302;2024-02-15T10:04:39;97656.56;;;13.31;100.00
72210;BME280;60113;48.762;12.302;2024-02-15T10:07:05;97662.41;;;13.46;99.82
72210;BME280;60113;48.762;12.302;2024-02-15T10:09:34;97658.22;;;13.55;100.00
72210;BME280;60113;48.762;12.302;2024-02-15T10:12:02;97649.06;;;13.59;96.99
72210;BME280;60113;48.762;12.302;2024-02-15T10:14:29;97647.22;;;13.71;100.00
72210;BME280;60113;48.762;12.302;2024-02-15T10:16:55;97644.41;;;13.84;95.33
72210;BME280;60113;48.762;12.302;2024-02-15T10:19:21;97646.31;;;14.03;98.33
72210;BME280;60113;48.762;12.302;2024-02-15T10:21:54;97642.38;;;14.19;98.84
72210;BME280;60113;48.762;12.302;2024-02-15T10:24:23;97642.50;;;14.38;98.43
72210;BME280;60113;48.762;12.302;2024-02-15T10:27:00;97639.63;;;14.52;98.04
72210;BME280;60113;48.762;12.302;2024-02-15T10:29:32;97641.41;;;14.72;100.00
72210;BME280;60113;48.762;12.302;2024-02-15T10:32:00;97633.22;;;14.85;100.00
72210;BME280;60113;48.762;12.302;2024-02-15T10:34:26;97634.13;;;14.96;100.00
72210;BME280;60113;48.762;12.302;2024-02-15T10:37:12;97630.34;;;14.98;90.57
72210;BME280;60113;48.762;12.302;2024-02-15T10:39:38;97637.34;;;15.09;98.24
72210;BME280;60113;48.762;12.302;2024-02-15T10:42:06;97629.03;;;15.24;98.87
72210;BME280;60113;48.762;12.302;2024-02-15T10:44:32;97629.56;;;15.47;100.00
72210;BME280;60113;48.762;12.302;2024-02-15T10:46:59;97625.38;;;15.65;98.34
72210;BME280;60113;48.762;12.302;2024-02-15T10:49:25;97617.31;;;15.76;100.00
72210;BME280;60113;48.762;12.302;2024-02-15T10:52:00;97609.59;;;15.93;98.35
72210;BME280;60113;48.762;12.302;2024-02-15T10:57:20;97598.66;;;16.35;98.97
72210;BME280;60113;48.762;12.302;2024-02-15T10:59:57;97605.34;;;16.40;92.45
72210;BME280;60113;48.762;12.302;2024-02-15T11:02:30;97589.09;;;16.53;94.29
72210;BME280;60113;48.762;12.302;2024-02-15T11:05:06;97587.31;;;16.71;97.29
72210;BME280;60113;48.762;12.302;2024-02-15T11:07:36;97592.22;;;16.94;100.00
72210;BME280;60113;48.762;12.302;2024-02-15T11:10:06;97573.41;;;17.06;98.56
72210;BME280;60113;48.762;12.302;2024-02-15T11:12:37;97574.22;;;17.16;97.66
72210;BME280;60113;48.762;12.302;2024-02-15T11:15:03;97570.28;;;17.20;97.60
72210;BME280;60113;48.762;12.302;2024-02-15T11:17:55;97569.56;;;17.00;78.29
72210;BME280;60113;48.762;12.302;2024-02-15T11:22:58;97560.91;;;16.98;92.90
72210;BME280;60113;48.762;12.302;2024-02-15T11:25:34;97548.53;;;16.88;93.93
72210;BME280;60113;48.762;12.302;2024-02-15T11:30:56;97547.22;;;17.39;99.19
72210;BME280;60113;48.762;12.302;2024-02-15T11:33:30;97540.69;;;17.52;94.46
72210;BME280;60113;48.762;12.302;2024-02-15T11:36:07;97543.34;;;17.52;86.54
72210;BME280;60113;48.762;12.302;2024-02-15T11:38:33;97538.91;;;17.60;94.40
72210;BME280;60113;48.762;12.302;2024-02-15T11:41:00;97533.66;;;17.50;96.38
72210;BME280;60113;48.762;12.302;2024-02-15T11:46:26;97524.47;;;17.63;95.06
72210;BME280;60113;48.762;12.302;2024-02-15T11:49:00;97524.59;;;17.80;98.33
72210;BME280;60113;48.762;12.302;2024-02-15T11:51:31;97525.69;;;17.95;94.09
72210;BME280;60113;48.762;12.302;2024-02-15T11:54:06;97518.75;;;18.03;92.10
72210;BME280;60113;48.762;12.302;2024-02-15T11:59:09;97505.72;;;18.18;96.34
72210;BME280;60113;48.762;12.302;2024-02-15T12:01:44;97511.56;;;18.21;96.60
72210;BME280;60113;48.762;12.302;2024-02-15T12:04:29;97506.34;;;17.85;93.21
72210;BME280;60113;48.762;12.302;2024-02-15T12:07:14;97507.78;;;17.53;89.03
72210;BME280;60113;48.762;12.302;2024-02-15T12:09:59;97504.88;;;17.37;91.07
72210;BME280;60113;48.762;12.302;2024-02-15T12:12:53;97506.47;;;17.12;83.25
72210;BME280;60113;48.762;12.302;2024-02-15T12:16:01;97512.09;;;16.62;76.00
72210;BME280;60113;48.762;12.302;2024-02-15T12:18:44;97504.72;;;16.38;68.98
72210;BME280;60113;48.762;12.302;2024-02-15T12:21:15;97507.78;;;16.61;86.04
72210;BME280;60113;48.762;12.302;2024-02-15T12:23:42;97500.75;;;16.70;89.44
72210;BME280;60113;48.762;12.302;2024-02-15T12:26:08;97497.72;;;16.65;87.11
72210;BME280;60113;48.762;12.302;2024-02-15T12:28:34;97494.44;;;16.71;87.77
72210;BME280;60113;48.762;12.302;2024-02-15T12:31:02;97493.56;;;16.81;86.43
72210;BME280;60113;48.762;12.302;2024-02-15T12:33:28;97484.63;;;16.82;84.18
72210;BME280;60113;48.762;12.302;2024-02-15T12:36:06;97481.66;;;16.67;78.43
72210;BME280;60113;48.762;12.302;2024-02-15T12:38:32;97474.47;;;16.59;84.13
72210;BME280;60113;48.762;12.302;2024-02-15T12:40:59;97472.25;;;16.54;85.41
72210;BME280;60113;48.762;12.302;2024-02-15T12:43:28;97468.41;;;16.67;87.14
72210;BME280;60113;48.762;12.302;2024-02-15T12:45:53;97464.22;;;16.82;87.03
72210;BME280;60113;48.762;12.302;2024-02-15T12:48:22;97461.28;;;17.04;85.22
72210;BME280;60113;48.762;12.302;2024-02-15T12:50:48;97457.16;;;17.28;87.91
72210;BME280;60113;48.762;12.302;2024-02-15T12:53:20;97459.72;;;17.37;80.58
72210;BME280;60113;48.762;12.302;2024-02-15T12:55:53;97454.13;;;17.49;83.69
72210;BME280;60113;48.762;12.302;2024-02-15T12:58:20;97445.44;;;17.65;87.76
72210;BME280;60113;48.762;12.302;2024-02-15T13:00:45;97450.44;;;17.68;84.68
72210;BME280;60113;48.762;12.302;2024-02-15T13:03:11;97442.38;;;17.78;86.78
72210;BME280;60113;48.762;12.302;2024-02-15T13:05:39;97437.66;;;17.98;88.98
72210;BME280;60113;48.762;12.302;2024-02-15T13:08:05;97436.00;;;18.06;85.07